sensor_id;sensor_type;location;lat;lon;timestamp;P1;durP1;ratioP1;P2;durP2;ratioP2
52866;SDS011;38739;53.324;6.862;2023-04-01T00:00:16;9.98;;;7.47;;
52866;SDS011;38739;53.324;6.862;2023-04-01T00:02:42;13.27;;;8.20;;
52866;SDS011;38739;53.324;6.862;2023-04-01T00:05:08;9.50;;;6.68;;
52866;SDS011;38739;53.324;6.862;2023-04-01T00:07:35;13.13;;;7.60;;
52866;SDS011;38739;53.324;6.862;2023-04-01T00:10:02;9.73;;;7.25;;
52866;SDS011;38739;53.324;6.862;2023-04-01T00:12:28;10.52;;;7.78;;
52866;SDS011;38739;53.324;6.862;2023-04-01T00:14:54;9.95;;;7.65;;
52866;SDS011;38739;53.324;6.862;2023-04-01T00:17:20;10.32;;;8.15;;
52866;SDS011;38739;53.324;6.862;2023-04-01T00:19:46;13.40;;;8.85;;
52866;SDS011;38739;53.324;6.862;2023-04-01T00:22:12;12.02;;;9.48;;
52866;SDS011;38739;53.324;6.862;2023-04-01T00:24:38;12.82;;;9.02;;
52866;SDS011;38739;53.324;6.862;2023-04-01T00:27:04;14.15;;;9.32;;
52866;SDS011;38739;53.324;6.862;2023-04-01T00:29:30;13.65;;;9.32;;
52866;SDS011;38739;53.324;6.862;2023-04-01T00:31:57;14.57;;;9.40;;
52866;SDS011;38739;53.324;6.862;2023-04-01T00:34:23;14.32;;;9.95;;
52866;SDS011;38739;53.324;6.862;2023-04-01T00:36:52;14.48;;;10.13;;
52866;SDS011;38739;53.324;6.862;2023-04-01T00:39:19;16.38;;;10.98;;
52866;SDS011;38739;53.324;6.862;2023-04-01T00:41:46;15.57;;;11.25;;
52866;SDS011;38739;53.324;6.862;2023-04-01T00:44:16;15.13;;;10.88;;
52866;SDS011;38739;53.324;6.862;2023-04-01T00:46:44;16.88;;;11.30;;
52866;SDS011;38739;53.324;6.862;2023-04-01T00:49:10;17.10;;;12.32;;
52866;SDS011;38739;53.324;6.862;2023-04-01T00:51:37;19.30;;;12.95;;
52866;SDS011;38739;53.324;6.862;2023-04-01T00:54:06;17.35;;;11.98;;
52866;SDS011;38739;53.324;6.862;2023-04-01T00:56:34;16.42;;;12.35;;
52866;SDS011;38739;53.324;6.862;2023-04-01T00:59:17;19.92;;;12.10;;
52866;SDS011;38739;53.324;6.862;2023-04-01T01:01:47;17.05;;;11.73;;
52866;SDS011;38739;53.324;6.862;2023-04-01T01:04:26;15.13;;;11.60;;
52866;SDS011;38739;53.324;6.862;2023-04-01T01:12:45;16.45;;;11.25;;
52866;SDS011;38739;53.324;6.862;2023-04-01T01:15:15;17.45;;;11.52;;
52866;SDS011;38739;53.324;6.862;2023-04-01T01:25:45;15.82;;;11.35;;
52866;SDS011;38739;53.324;6.862;2023-04-01T01:36:19;16.42;;;11.70;;
52866;SDS011;38739;53.324;6.862;2023-04-01T01:38:46;15.25;;;11.90;;
52866;SDS011;38739;53.324;6.862;2023-04-01T01:41:13;17.60;;;12.27;;
52866;SDS011;38739;53.324;6.862;2023-04-01T01:43:44;17.33;;;12.07;;
52866;SDS011;38739;53.324;6.862;2023-04-01T01:46:14;17.88;;;11.90;;
52866;SDS011;38739;53.324;6.862;2023-04-01T01:48:43;17.40;;;12.25;;
52866;SDS011;38739;53.324;6.862;2023-04-01T01:51:11;19.30;;;12.40;;
52866;SDS011;38739;53.324;6.862;2023-04-01T01:53:36;15.30;;;11.43;;
52866;SDS011;38739;53.324;6.862;2023-04-01T01:56:03;15.48;;;11.73;;
52866;SDS011;38739;53.324;6.862;2023-04-01T01:58:36;15.88;;;12.20;;
52866;SDS011;38739;53.324;6.862;2023-04-01T02:01:17;18.50;;;12.05;;
52866;SDS011;38739;53.324;6.862;2023-04-01T02:03:50;16.67;;;11.30;;
52866;SDS011;38739;53.324;6.862;2023-04-01T02:06:18;15.80;;;11.95;;
52866;SDS011;38739;53.324;6.862;2023-04-01T02:08:49;16.98;;;12.95;;
52866;SDS011;38739;53.324;6.862;2023-04-01T02:11:18;17.33;;;12.23;;
52866;SDS011;38739;53.324;6.862;2023-04-01T02:19:13;17.52;;;12.13;;
52866;SDS011;38739;53.324;6.862;2023-04-01T02:21:47;17.00;;;12.45;;
52866;SDS011;38739;53.324;6.862;2023-04-01T02:24:26;18.45;;;12.85;;
52866;SDS011;38739;53.324;6.862;2023-04-01T02:26:54;18.75;;;12.82;;
52866;SDS011;38739;53.324;6.862;2023-04-01T02:29:20;19.92;;;13.27;;
52866;SDS011;38739;53.324;6.862;2023-04-01T02:34:19;17.80;;;12.27;;
52866;SDS011;38739;53.324;6.862;2023-04-01T02:36:47;19.63;;;12.95;;
52866;SDS011;38739;53.324;6.862;2023-04-01T02:39:14;22.92;;;13.70;;
52866;SDS011;38739;53.324;6.862;2023-04-01T02:41:41;21.55;;;12.75;;
52866;SDS011;38739;53.324;6.862;2023-04-01T02:44:09;20.05;;;13.35;;
52866;SDS011;38739;53.324;6.862;2023-04-01T02:46:36;20.70;;;13.20;;
52866;SDS011;38739;53.324;6.862;2023-04-01T02:49:02;18.42;;;13.32;;
52866;SDS011;38739;53.324;6.862;2023-04-01T02:51:28;21.40;;;13.95;;
52866;SDS011;38739;53.324;6.862;2023-04-01T02:53:54;22.48;;;14.35;;
52866;SDS011;38739;53.324;6.862;2023-04-01T02:56:20;22.83;;;14.05;;
52866;SDS011;38739;53.324;6.862;2023-04-01T02:58:46;20.88;;;13.10;;
52866;SDS011;38739;53.324;6.862;2023-04-01T03:01:12;24.35;;;14.60;;
52866;SDS011;38739;53.324;6.862;2023-04-01T03:03:38;25.67;;;15.30;;
52866;SDS011;38739;53.324;6.862;2023-04-01T03:06:05;24.38;;;14.80;;
52866;SDS011;38739;53.324;6.862;2023-04-01T03:08:31;22.80;;;15.02;;
52866;SDS011;38739;53.324;6.862;2023-04-01T03:10:57;20.80;;;15.10;;
52866;SDS011;38739;53.324;6.862;2023-04-01T03:13:22;23.15;;;16.05;;
52866;SDS011;38739;53.324;6.862;2023-04-01T03:15:48;21.67;;;15.60;;
52866;SDS011;38739;53.324;6.862;2023-04-01T03:18:14;23.33;;;15.63;;
52866;SDS011;38739;53.324;6.862;2023-04-01T03:20:40;26.02;;;16.23;;
52866;SDS011;38739;53.324;6.862;2023-04-01T03:23:05;25.05;;;15.60;;
52866;SDS011;38739;53.324;6.862;2023-04-01T03:25:32;27.13;;;16.50;;
52866;SDS011;38739;53.324;6.862;2023-04-01T03:27:58;25.52;;;16.40;;
52866;SDS011;38739;53.324;6.862;2023-04-01T03:30:25;26.35;;;17.23;;
52866;SDS011;38739;53.324;6.862;2023-04-01T03:32:51;26.00;;;17.20;;
52866;SDS011;38739;53.324;6.862;2023-04-01T03:35:17;25.95;;;17.50;;
52866;SDS011;38739;53.324;6.862;2023-04-01T03:37:43;26.90;;;17.02;;
52866;SDS011;38739;53.324;6.862;2023-04-01T03:40:09;25.48;;;16.17;;
52866;SDS011;38739;53.324;6.862;2023-04-01T03:42:35;25.20;;;16.48;;
52866;SDS011;38739;53.324;6.862;2023-04-01T03:45:02;23.15;;;15.57;;
52866;SDS011;38739;53.324;6.862;2023-04-01T03:47:28;24.73;;;16.35;;
52866;SDS011;38739;53.324;6.862;2023-04-01T03:49:54;22.75;;;15.80;;
52866;SDS011;38739;53.324;6.862;2023-04-01T03:52:20;23.63;;;15.70;;
52866;SDS011;38739;53.324;6.862;2023-04-01T03:54:46;25.52;;;16.67;;
52866;SDS011;38739;53.324;6.862;2023-04-01T03:57:12;25.95;;;16.42;;
52866;SDS011;38739;53.324;6.862;2023-04-01T03:59:37;28.33;;;17.38;;
52866;SDS011;38739;53.324;6.862;2023-04-01T04:02:03;25.45;;;17.13;;
52866;SDS011;38739;53.324;6.862;2023-04-01T04:04:30;26.95;;;18.13;;
52866;SDS011;38739;53.324;6.862;2023-04-01T04:06:55;26.48;;;18.52;;
52866;SDS011;38739;53.324;6.862;2023-04-01T04:09:21;31.88;;;18.15;;
52866;SDS011;38739;53.324;6.862;2023-04-01T04:11:48;28.58;;;19.02;;
52866;SDS011;38739;53.324;6.862;2023-04-01T04:14:14;28.90;;;18.63;;
52866;SDS011;38739;53.324;6.862;2023-04-01T04:16:40;31.55;;;18.73;;
52866;SDS011;38739;53.324;6.862;2023-04-01T04:19:06;29.92;;;19.23;;
52866;SDS011;38739;53.324;6.862;2023-04-01T04:21:32;29.73;;;20.08;;
52866;SDS011;38739;53.324;6.862;2023-04-01T04:23:58;31.33;;;20.42;;
52866;SDS011;38739;53.324;6.862;2023-04-01T04:26:25;32.30;;;20.75;;
52866;SDS011;38739;53.324;6.862;2023-04-01T04:28:51;30.73;;;20.20;;
52866;SDS011;38739;53.324;6.862;2023-04-01T04:31:22;27.55;;;19.75;;
52866;SDS011;38739;53.324;6.862;2023-04-01T04:33:48;31.42;;;20.48;;
52866;SDS011;38739;53.324;6.862;2023-04-01T04:36:15;32.25;;;20.85;;
52866;SDS011;38739;53.324;6.862;2023-04-01T04:38:40;31.50;;;21.17;;
52866;SDS011;38739;53.324;6.862;2023-04-01T04:41:10;31.60;;;21.38;;
52866;SDS011;38739;53.324;6.862;2023-04-01T04:43:40;32.72;;;21.33;;
52866;SDS011;38739;53.324;6.862;2023-04-01T04:46:06;31.38;;;21.13;;
52866;SDS011;38739;53.324;6.862;2023-04-01T04:48:33;32.88;;;21.67;;
52866;SDS011;38739;53.324;6.862;2023-04-01T04:50:59;35.00;;;22.40;;
52866;SDS011;38739;53.324;6.862;2023-04-01T04:53:25;33.40;;;21.25;;
52866;SDS011;38739;53.324;6.862;2023-04-01T04:55:51;34.40;;;22.30;;
52866;SDS011;38739;53.324;6.862;2023-04-01T04:58:18;33.00;;;21.50;;
52866;SDS011;38739;53.324;6.862;2023-04-01T05:00:44;30.85;;;21.08;;
52866;SDS011;38739;53.324;6.862;2023-04-01T05:03:11;35.67;;;21.90;;
52866;SDS011;38739;53.324;6.862;2023-04-01T05:05:37;33.67;;;21.80;;
52866;SDS011;38739;53.324;6.862;2023-04-01T05:08:04;34.30;;;22.38;;
52866;SDS011;38739;53.324;6.862;2023-04-01T05:10:30;33.10;;;22.23;;
52866;SDS011;38739;53.324;6.862;2023-04-01T05:12:56;31.75;;;21.05;;
52866;SDS011;38739;53.324;6.862;2023-04-01T05:15:22;32.65;;;21.40;;
52866;SDS011;38739;53.324;6.862;2023-04-01T05:17:48;33.65;;;21.95;;
52866;SDS011;38739;53.324;6.862;2023-04-01T05:20:14;31.13;;;20.70;;
52866;SDS011;38739;53.324;6.862;2023-04-01T05:22:42;30.00;;;20.38;;
52866;SDS011;38739;53.324;6.862;2023-04-01T05:25:08;29.98;;;20.23;;
52866;SDS011;38739;53.324;6.862;2023-04-01T05:27:34;31.88;;;21.45;;
52866;SDS011;38739;53.324;6.862;2023-04-01T05:30:00;31.00;;;20.58;;
52866;SDS011;38739;53.324;6.862;2023-04-01T05:32:25;29.98;;;19.88;;
52866;SDS011;38739;53.324;6.862;2023-04-01T05:34:51;33.42;;;20.67;;
52866;SDS011;38739;53.324;6.862;2023-04-01T05:37:17;27.90;;;19.50;;
52866;SDS011;38739;53.324;6.862;2023-04-01T05:39:43;27.88;;;18.75;;
52866;SDS011;38739;53.324;6.862;2023-04-01T05:42:09;26.65;;;18.15;;
52866;SDS011;38739;53.324;6.862;2023-04-01T05:44:35;28.20;;;18.98;;
52866;SDS011;38739;53.324;6.862;2023-04-01T05:47:01;32.28;;;20.30;;
52866;SDS011;38739;53.324;6.862;2023-04-01T05:49:28;30.83;;;20.30;;
52866;SDS011;38739;53.324;6.862;2023-04-01T05:51:54;30.60;;;20.75;;
52866;SDS011;38739;53.324;6.862;2023-04-01T05:54:20;30.90;;;21.17;;
52866;SDS011;38739;53.324;6.862;2023-04-01T05:56:46;33.78;;;21.25;;
52866;SDS011;38739;53.324;6.862;2023-04-01T05:59:11;31.77;;;20.85;;
52866;SDS011;38739;53.324;6.862;2023-04-01T06:01:38;30.67;;;20.25;;
52866;SDS011;38739;53.324;6.862;2023-04-01T06:04:04;29.58;;;20.50;;
52866;SDS011;38739;53.324;6.862;2023-04-01T06:06:30;33.00;;;21.52;;
52866;SDS011;38739;53.324;6.862;2023-04-01T06:08:58;31.25;;;20.73;;
52866;SDS011;38739;53.324;6.862;2023-04-01T06:20:01;33.50;;;22.08;;
52866;SDS011;38739;53.324;6.862;2023-04-01T06:22:57;35.05;;;22.83;;
52866;SDS011;38739;53.324;6.862;2023-04-01T06:28:22;34.42;;;22.73;;
52866;SDS011;38739;53.324;6.862;2023-04-01T06:31:20;36.78;;;23.42;;
52866;SDS011;38739;53.324;6.862;2023-04-01T06:42:52;36.75;;;24.10;;
52866;SDS011;38739;53.324;6.862;2023-04-01T06:50:52;34.38;;;22.63;;
52866;SDS011;38739;53.324;6.862;2023-04-01T06:56:09;34.80;;;22.77;;
52866;SDS011;38739;53.324;6.862;2023-04-01T06:58:39;34.88;;;22.25;;
52866;SDS011;38739;53.324;6.862;2023-04-01T07:01:38;33.80;;;22.20;;
52866;SDS011;38739;53.324;6.862;2023-04-01T07:06:57;35.00;;;22.20;;
52866;SDS011;38739;53.324;6.862;2023-04-01T07:09:34;34.78;;;21.92;;
52866;SDS011;38739;53.324;6.862;2023-04-01T07:14:52;31.80;;;21.73;;
52866;SDS011;38739;53.324;6.862;2023-04-01T07:17:22;28.73;;;21.30;;
52866;SDS011;38739;53.324;6.862;2023-04-01T07:19:54;30.20;;;21.17;;
52866;SDS011;38739;53.324;6.862;2023-04-01T07:22:35;32.25;;;20.70;;
52866;SDS011;38739;53.324;6.862;2023-04-01T07:25:11;30.60;;;21.08;;
52866;SDS011;38739;53.324;6.862;2023-04-01T07:27:38;31.25;;;21.52;;
52866;SDS011;38739;53.324;6.862;2023-04-01T07:30:06;30.55;;;21.52;;
52866;SDS011;38739;53.324;6.862;2023-04-01T07:32:46;28.92;;;20.63;;
52866;SDS011;38739;53.324;6.862;2023-04-01T07:41:06;29.10;;;20.02;;
52866;SDS011;38739;53.324;6.862;2023-04-01T07:49:09;28.67;;;19.77;;
52866;SDS011;38739;53.324;6.862;2023-04-01T07:52:12;27.05;;;18.75;;
52866;SDS011;38739;53.324;6.862;2023-04-01T07:55:06;27.67;;;19.33;;
52866;SDS011;38739;53.324;6.862;2023-04-01T08:08:32;26.67;;;17.42;;
52866;SDS011;38739;53.324;6.862;2023-04-01T08:13:56;23.35;;;17.27;;
52866;SDS011;38739;53.324;6.862;2023-04-01T08:16:31;22.63;;;15.90;;
52866;SDS011;38739;53.324;6.862;2023-04-01T08:19:13;22.27;;;14.68;;
52866;SDS011;38739;53.324;6.862;2023-04-01T08:22:02;19.27;;;13.95;;
52866;SDS011;38739;53.324;6.862;2023-04-01T08:27:41;10.77;;;7.75;;
52866;SDS011;38739;53.324;6.862;2023-04-01T08:30:16;7.93;;;5.57;;
52866;SDS011;38739;53.324;6.862;2023-04-01T08:32:57;6.93;;;5.20;;
52866;SDS011;38739;53.324;6.862;2023-04-01T08:35:31;7.43;;;4.85;;
52866;SDS011;38739;53.324;6.862;2023-04-01T09:20:03;4.28;;;2.95;;
52866;SDS011;38739;53.324;6.862;2023-04-01T09:25:27;4.13;;;2.88;;
52866;SDS011;38739;53.324;6.862;2023-04-01T09:31:21;3.90;;;2.53;;
52866;SDS011;38739;53.324;6.862;2023-04-01T09:34:21;4.57;;;3.10;;
52866;SDS011;38739;53.324;6.862;2023-04-01T09:45:30;3.20;;;2.50;;
52866;SDS011;38739;53.324;6.862;2023-04-01T09:56:44;3.88;;;2.20;;
52866;SDS011;38739;53.324;6.862;2023-04-01T10:05:45;2.85;;;1.83;;
52866;SDS011;38739;53.324;6.862;2023-04-01T10:08:14;3.47;;;1.90;;
52866;SDS011;38739;53.324;6.862;2023-04-01T10:11:15;2.75;;;1.70;;
52866;SDS011;38739;53.324;6.862;2023-04-01T10:33:20;3.88;;;2.90;;
52866;SDS011;38739;53.324;6.862;2023-04-01T10:42:00;3.47;;;2.78;;
52866;SDS011;38739;53.324;6.862;2023-04-01T11:02:31;4.32;;;2.35;;
52866;SDS011;38739;53.324;6.862;2023-04-01T11:07:45;2.90;;;2.20;;
52866;SDS011;38739;53.324;6.862;2023-04-01T11:35:03;2.40;;;1.80;;
52866;SDS011;38739;53.324;6.862;2023-04-01T11:37:54;2.42;;;1.30;;
52866;SDS011;38739;53.324;6.862;2023-04-01T11:40:36;3.05;;;1.70;;
52866;SDS011;38739;53.324;6.862;2023-04-01T11:43:19;2.60;;;2.10;;
52866;SDS011;38739;53.324;6.862;2023-04-01T11:46:10;2.88;;;1.80;;
52866;SDS011;38739;53.324;6.862;2023-04-01T11:48:58;2.70;;;1.40;;
52866;SDS011;38739;53.324;6.862;2023-04-01T12:19:50;1.83;;;1.50;;
52866;SDS011;38739;53.324;6.862;2023-04-01T12:31:05;2.20;;;1.90;;
52866;SDS011;38739;53.324;6.862;2023-04-01T12:36:26;2.22;;;1.70;;
52866;SDS011;38739;53.324;6.862;2023-04-01T12:47:55;1.70;;;1.60;;
52866;SDS011;38739;53.324;6.862;2023-04-01T12:56:02;1.75;;;1.60;;
52866;SDS011;38739;53.324;6.862;2023-04-01T12:58:52;2.25;;;1.50;;
52866;SDS011;38739;53.324;6.862;2023-04-01T13:04:49;1.92;;;1.67;;
52866;SDS011;38739;53.324;6.862;2023-04-01T13:07:42;2.60;;;1.77;;
52866;SDS011;38739;53.324;6.862;2023-04-01T13:10:30;1.45;;;1.27;;
52866;SDS011;38739;53.324;6.862;2023-04-01T13:13:10;2.10;;;1.30;;
52866;SDS011;38739;53.324;6.862;2023-04-01T13:16:01;2.13;;;1.45;;
52866;SDS011;38739;53.324;6.862;2023-04-01T13:21:32;1.77;;;1.15;;
52866;SDS011;38739;53.324;6.862;2023-04-01T13:29:23;1.40;;;1.17;;
52866;SDS011;38739;53.324;6.862;2023-04-01T13:46:04;2.30;;;1.20;;
52866;SDS011;38739;53.324;6.862;2023-04-01T13:52:00;1.63;;;1.33;;
52866;SDS011;38739;53.324;6.862;2023-04-01T14:12:40;2.53;;;1.30;;
52866;SDS011;38739;53.324;6.862;2023-04-01T14:17:27;2.20;;;1.40;;
52866;SDS011;38739;53.324;6.862;2023-04-01T14:28:12;4.03;;;1.77;;
52866;SDS011;38739;53.324;6.862;2023-04-01T14:48:23;3.65;;;2.25;;
52866;SDS011;38739;53.324;6.862;2023-04-01T14:50:40;4.50;;;2.33;;
52866;SDS011;38739;53.324;6.862;2023-04-01T14:55:51;6.50;;;2.83;;
52866;SDS011;38739;53.324;6.862;2023-04-01T14:58:21;5.97;;;3.05;;
52866;SDS011;38739;53.324;6.862;2023-04-01T15:00:54;4.55;;;2.95;;
52866;SDS011;38739;53.324;6.862;2023-04-01T15:03:31;3.78;;;2.90;;
52866;SDS011;38739;53.324;6.862;2023-04-01T15:11:43;4.97;;;3.50;;
52866;SDS011;38739;53.324;6.862;2023-04-01T15:20:14;9.43;;;3.92;;
52866;SDS011;38739;53.324;6.862;2023-04-01T15:22:48;7.18;;;3.88;;
52866;SDS011;38739;53.324;6.862;2023-04-01T15:28:37;8.27;;;4.00;;
52866;SDS011;38739;53.324;6.862;2023-04-01T15:36:51;6.35;;;4.55;;
52866;SDS011;38739;53.324;6.862;2023-04-01T15:44:53;10.30;;;5.40;;
52866;SDS011;38739;53.324;6.862;2023-04-01T15:47:33;11.95;;;5.18;;
52866;SDS011;38739;53.324;6.862;2023-04-01T15:50:24;8.00;;;4.90;;
52866;SDS011;38739;53.324;6.862;2023-04-01T15:56:11;8.98;;;5.22;;
52866;SDS011;38739;53.324;6.862;2023-04-01T16:01:51;8.40;;;5.03;;
52866;SDS011;38739;53.324;6.862;2023-04-01T16:04:54;9.13;;;5.40;;
52866;SDS011;38739;53.324;6.862;2023-04-01T16:13:38;9.48;;;4.55;;
52866;SDS011;38739;53.324;6.862;2023-04-01T16:22:00;11.73;;;5.97;;
52866;SDS011;38739;53.324;6.862;2023-04-01T16:24:50;10.38;;;5.85;;
52866;SDS011;38739;53.324;6.862;2023-04-01T16:31:08;12.45;;;5.43;;
52866;SDS011;38739;53.324;6.862;2023-04-01T16:33:48;10.88;;;5.75;;
52866;SDS011;38739;53.324;6.862;2023-04-01T16:36:33;11.88;;;6.68;;
52866;SDS011;38739;53.324;6.862;2023-04-01T16:39:27;12.13;;;6.90;;
52866;SDS011;38739;53.324;6.862;2023-04-01T16:47:56;24.10;;;11.90;;
52866;SDS011;38739;53.324;6.862;2023-04-01T16:58:35;9.10;;;5.68;;
52866;SDS011;38739;53.324;6.862;2023-04-01T17:03:49;8.50;;;5.47;;
52866;SDS011;38739;53.324;6.862;2023-04-01T17:11:16;13.07;;;6.43;;
52866;SDS011;38739;53.324;6.862;2023-04-01T17:25:33;14.77;;;6.97;;
52866;SDS011;38739;53.324;6.862;2023-04-01T17:33:00;10.23;;;5.78;;
52866;SDS011;38739;53.324;6.862;2023-04-01T17:47:17;10.88;;;5.78;;
52866;SDS011;38739;53.324;6.862;2023-04-01T17:50:20;9.60;;;5.90;;
52866;SDS011;38739;53.324;6.862;2023-04-01T17:58:19;10.65;;;6.00;;
52866;SDS011;38739;53.324;6.862;2023-04-01T18:17:24;13.13;;;6.32;;
52866;SDS011;38739;53.324;6.862;2023-04-01T18:25:40;14.38;;;6.43;;
52866;SDS011;38739;53.324;6.862;2023-04-01T18:31:12;13.18;;;6.50;;
52866;SDS011;38739;53.324;6.862;2023-04-01T18:36:51;12.38;;;6.88;;
52866;SDS011;38739;53.324;6.862;2023-04-01T18:39:34;12.25;;;5.65;;
52866;SDS011;38739;53.324;6.862;2023-04-01T18:42:16;10.30;;;6.13;;
52866;SDS011;38739;53.324;6.862;2023-04-01T18:56:32;12.65;;;6.13;;
52866;SDS011;38739;53.324;6.862;2023-04-01T18:59:12;14.30;;;5.93;;
52866;SDS011;38739;53.324;6.862;2023-04-01T19:01:49;9.85;;;5.35;;
52866;SDS011;38739;53.324;6.862;2023-04-01T19:06:52;11.48;;;5.75;;
52866;SDS011;38739;53.324;6.862;2023-04-01T19:09:22;15.63;;;6.55;;
52866;SDS011;38739;53.324;6.862;2023-04-01T19:12:10;15.15;;;6.85;;
52866;SDS011;38739;53.324;6.862;2023-04-01T19:18:16;13.10;;;6.32;;
52866;SDS011;38739;53.324;6.862;2023-04-01T19:21:22;9.65;;;5.53;;
52866;SDS011;38739;53.324;6.862;2023-04-01T19:26:33;11.20;;;5.47;;
52866;SDS011;38739;53.324;6.862;2023-04-01T19:29:30;14.50;;;5.80;;
52866;SDS011;38739;53.324;6.862;2023-04-01T19:35:09;12.27;;;5.53;;
52866;SDS011;38739;53.324;6.862;2023-04-01T19:37:57;14.55;;;6.90;;
52866;SDS011;38739;53.324;6.862;2023-04-01T19:46:25;12.95;;;5.47;;
52866;SDS011;38739;53.324;6.862;2023-04-01T19:49:22;11.65;;;5.13;;
52866;SDS011;38739;53.324;6.862;2023-04-01T19:52:20;14.00;;;5.88;;
52866;SDS011;38739;53.324;6.862;2023-04-01T19:55:00;10.18;;;5.07;;
52866;SDS011;38739;53.324;6.862;2023-04-01T19:57:46;8.32;;;5.10;;
52866;SDS011;38739;53.324;6.862;2023-04-01T20:14:03;12.40;;;5.07;;
52866;SDS011;38739;53.324;6.862;2023-04-01T20:17:11;10.88;;;4.82;;
52866;SDS011;38739;53.324;6.862;2023-04-01T20:22:30;10.48;;;4.88;;
52866;SDS011;38739;53.324;6.862;2023-04-01T20:28:14;9.10;;;4.57;;
52866;SDS011;38739;53.324;6.862;2023-04-01T20:33:33;8.43;;;4.25;;
52866;SDS011;38739;53.324;6.862;2023-04-01T20:36:23;9.75;;;4.85;;
52866;SDS011;38739;53.324;6.862;2023-04-01T20:39:09;19.83;;;9.50;;
52866;SDS011;38739;53.324;6.862;2023-04-01T20:42:02;10.38;;;6.32;;
52866;SDS011;38739;53.324;6.862;2023-04-01T20:44:35;11.32;;;5.57;;
52866;SDS011;38739;53.324;6.862;2023-04-01T20:50:00;10.43;;;5.00;;
52866;SDS011;38739;53.324;6.862;2023-04-01T20:53:05;10.82;;;4.38;;
52866;SDS011;38739;53.324;6.862;2023-04-01T21:04:10;9.10;;;4.15;;
52866;SDS011;38739;53.324;6.862;2023-04-01T21:10:29;10.45;;;4.43;;
52866;SDS011;38739;53.324;6.862;2023-04-01T21:34:58;14.57;;;5.13;;
52866;SDS011;38739;53.324;6.862;2023-04-01T21:37:33;11.50;;;5.30;;
52866;SDS011;38739;53.324;6.862;2023-04-01T21:40:20;9.40;;;4.97;;
52866;SDS011;38739;53.324;6.862;2023-04-01T22:04:35;12.45;;;3.80;;
52866;SDS011;38739;53.324;6.862;2023-04-01T22:07:00;10.05;;;3.85;;
52866;SDS011;38739;53.324;6.862;2023-04-01T22:09:45;9.93;;;3.45;;
52866;SDS011;38739;53.324;6.862;2023-04-01T22:18:29;9.43;;;4.20;;
52866;SDS011;38739;53.324;6.862;2023-04-01T22:21:00;8.52;;;3.67;;
52866;SDS011;38739;53.324;6.862;2023-04-01T22:23:45;10.18;;;3.55;;
52866;SDS011;38739;53.324;6.862;2023-04-01T22:28:55;8.80;;;3.67;;
52866;SDS011;38739;53.324;6.862;2023-04-01T22:31:26;12.27;;;4.03;;
52866;SDS011;38739;53.324;6.862;2023-04-01T22:34:02;11.82;;;3.13;;
52866;SDS011;38739;53.324;6.862;2023-04-01T22:36:56;9.65;;;3.28;;
52866;SDS011;38739;53.324;6.862;2023-04-01T22:45:18;9.57;;;3.30;;
52866;SDS011;38739;53.324;6.862;2023-04-01T22:50:55;8.38;;;3.20;;
52866;SDS011;38739;53.324;6.862;2023-04-01T22:56:18;8.85;;;3.67;;
52866;SDS011;38739;53.324;6.862;2023-04-01T22:58:57;8.77;;;3.65;;
52866;SDS011;38739;53.324;6.862;2023-04-01T23:01:33;10.93;;;3.40;;
52866;SDS011;38739;53.324;6.862;2023-04-01T23:04:05;7.75;;;2.80;;
52866;SDS011;38739;53.324;6.862;2023-04-01T23:06:42;7.43;;;3.33;;
52866;SDS011;38739;53.324;6.862;2023-04-01T23:09:27;7.70;;;3.00;;
52866;SDS011;38739;53.324;6.862;2023-04-01T23:12:07;8.45;;;3.45;;
52866;SDS011;38739;53.324;6.862;2023-04-01T23:14:43;8.82;;;3.22;;
52866;SDS011;38739;53.324;6.862;2023-04-01T23:22:43;10.35;;;3.22;;
52866;SDS011;38739;53.324;6.862;2023-04-01T23:36:10;4.68;;;2.97;;
52866;SDS011;38739;53.324;6.862;2023-04-01T23:38:38;10.88;;;3.35;;
52866;SDS011;38739;53.324;6.862;2023-04-01T23:41:22;10.63;;;3.25;;
52866;SDS011;38739;53.324;6.862;2023-04-01T23:44:02;10.15;;;3.35;;
52866;SDS011;38739;53.324;6.862;2023-04-01T23:46:36;7.80;;;3.35;;
52866;SDS011;38739;53.324;6.862;2023-04-01T23:49:04;9.95;;;3.53;;
52866;SDS011;38739;53.324;6.862;2023-04-01T23:51:49;8.95;;;3.28;;
52866;SDS011;38739;53.324;6.862;2023-04-01T23:54:34;7.53;;;2.95;;
52866;SDS011;38739;53.324;6.862;2023-04-01T23:57:13;7.38;;;3.03;;
52866;SDS011;38739;53.324;6.862;2023-04-01T23:59:42;8.27;;;2.83;;
